createdAt,value
2018-09-15T00:05:11.134Z,6.10
2018-09-15T00:10:29.978Z,6.80
2018-09-15T00:15:48.772Z,7.27
2018-09-15T00:21:07.527Z,6.90
2018-09-15T00:26:26.056Z,6.13
2018-09-15T00:31:44.844Z,6.90
2018-09-15T00:37:05.124Z,7.37
2018-09-15T00:42:24.598Z,7.33
2018-09-15T00:47:43.656Z,6.80
2018-09-15T00:53:02.428Z,6.87
2018-09-15T00:58:20.983Z,7.00
2018-09-15T01:03:39.837Z,6.23
2018-09-15T01:08:58.862Z,6.83
2018-09-15T01:14:17.550Z,6.57
2018-09-15T01:19:36.412Z,6.60
2018-09-15T01:24:55.039Z,6.50
2018-09-15T01:30:13.682Z,6.37
2018-09-15T01:35:32.531Z,5.60
2018-09-15T01:40:51.056Z,5.33
2018-09-15T01:46:09.759Z,5.40
2018-09-15T01:51:29.889Z,6.13
2018-09-15T01:56:49.201Z,5.50
2018-09-15T02:02:07.727Z,5.13
2018-09-15T02:07:26.277Z,5.20
2018-09-15T02:12:44.970Z,6.17
2018-09-15T02:18:03.592Z,6.23
2018-09-15T02:23:22.167Z,5.83
2018-09-15T02:28:40.707Z,5.83
2018-09-15T02:34:00.291Z,6.30
2018-09-15T02:39:18.932Z,5.72
2018-09-15T02:44:37.669Z,5.70
2018-09-15T02:49:56.260Z,5.53
2018-09-15T02:55:16.234Z,6.20
2018-09-15T03:00:34.759Z,5.47
2018-09-15T03:05:53.918Z,5.90
2018-09-15T03:11:12.422Z,4.77
2018-09-15T03:16:31.730Z,4.40
2018-09-15T03:21:51.149Z,4.00
2018-09-15T03:27:09.894Z,4.80
2018-09-15T03:32:28.727Z,4.43
2018-09-15T03:37:47.299Z,4.20
2018-09-15T03:43:06.881Z,4.23
2018-09-15T03:48:25.766Z,4.07
2018-09-15T03:53:44.965Z,4.17
2018-09-15T03:59:04.153Z,4.07
2018-09-15T04:04:23.034Z,3.70
2018-09-15T04:09:41.651Z,3.77
2018-09-15T04:15:00.308Z,4.00
2018-09-15T04:20:18.860Z,3.87
2018-09-15T04:25:37.678Z,4.17
2018-09-15T04:30:56.262Z,4.80
2018-09-15T04:36:15.524Z,3.73
2018-09-15T04:41:34.139Z,3.90
2018-09-15T04:46:52.654Z,3.85
2018-09-15T04:52:11.636Z,3.77
2018-09-15T04:57:30.881Z,4.00
2018-09-15T05:02:49.471Z,4.27
2018-09-15T05:08:08.007Z,4.53
2018-09-15T05:13:27.159Z,4.23
2018-09-15T05:18:45.721Z,4.03
2018-09-15T05:24:04.304Z,4.00
2018-09-15T05:29:23.043Z,4.20
2018-09-15T05:34:41.682Z,4.10
2018-09-15T05:39:59.652Z,4.50
2018-09-15T05:45:18.307Z,4.70
2018-09-15T05:50:36.881Z,4.30
2018-09-15T05:55:56.631Z,4.27
2018-09-15T06:01:15.211Z,4.60
2018-09-15T06:06:34.036Z,4.60
2018-09-15T06:11:53.616Z,4.07
2018-09-15T06:17:12.117Z,4.40
2018-09-15T06:22:30.651Z,5.07
2018-09-15T06:27:49.325Z,4.90
2018-09-15T06:33:07.907Z,4.77
2018-09-15T06:38:26.468Z,5.00
2018-09-15T06:43:45.148Z,4.93
2018-09-15T06:49:04.354Z,5.17
2018-09-15T06:54:23.902Z,5.70
2018-09-15T06:59:42.566Z,5.47
2018-09-15T07:29:31.586Z,6.60
2018-09-15T07:34:50.169Z,4.73
2018-09-15T07:40:08.673Z,4.93
2018-09-15T07:45:27.289Z,5.80
2018-09-15T07:50:45.815Z,4.60
2018-09-15T07:56:04.345Z,5.10
2018-09-15T08:01:22.877Z,5.70
2018-09-15T08:06:41.394Z,5.13
2018-09-15T08:11:59.934Z,5.07
2018-09-15T08:17:18.463Z,4.70
2018-09-15T08:22:37.020Z,4.83
2018-09-15T08:27:55.645Z,5.07
2018-09-15T08:33:13.149Z,6.03
2018-09-15T08:38:31.723Z,5.60
2018-09-15T08:43:50.307Z,6.80
2018-09-15T08:49:09.101Z,7.53
2018-09-15T08:54:27.678Z,7.57
2018-09-15T08:59:46.981Z,7.70
2018-09-15T09:05:05.600Z,7.17
2018-09-15T09:10:24.306Z,7.08
2018-09-15T09:15:42.779Z,7.10
2018-09-15T09:21:01.287Z,7.20
2018-09-15T09:26:19.926Z,7.40
2018-09-15T09:31:38.371Z,6.80
2018-09-15T09:36:57.555Z,5.10
2018-09-15T09:42:16.664Z,5.57
2018-09-15T09:47:35.237Z,6.53
2018-09-15T09:52:53.776Z,6.05
2018-09-15T09:58:12.940Z,6.93
2018-09-15T10:03:31.579Z,6.80
2018-09-15T10:08:50.144Z,7.97
2018-09-15T10:14:08.657Z,8.33
2018-09-15T10:19:27.326Z,8.70
2018-09-15T10:24:45.936Z,5.97
2018-09-15T10:30:05.647Z,5.17
2018-09-15T10:35:24.264Z,4.27
2018-09-15T10:40:42.816Z,3.70
2018-09-15T10:46:01.509Z,4.17
2018-09-15T10:51:19.992Z,3.80
2018-09-15T10:56:38.713Z,3.97
2018-09-15T11:01:57.311Z,5.13
2018-09-15T11:07:16.635Z,5.43
2018-09-15T11:12:35.170Z,3.47
2018-09-15T11:17:53.726Z,3.17
2018-09-15T11:23:13.514Z,2.43
2018-09-15T11:28:32.155Z,2.00
2018-09-15T11:33:50.735Z,1.93
2018-09-15T11:39:10.906Z,2.00
2018-09-15T11:44:29.406Z,1.70
2018-09-15T11:49:47.933Z,2.23
2018-09-15T11:55:06.596Z,1.60
2018-09-15T12:00:27.916Z,1.53
2018-09-15T12:05:46.475Z,1.87
2018-09-15T12:11:05.060Z,2.00
2018-09-15T12:16:23.634Z,2.13
2018-09-15T12:21:43.076Z,2.30
2018-09-15T12:27:01.570Z,2.40
2018-09-15T12:32:20.103Z,2.30
2018-09-15T12:37:38.673Z,2.10
2018-09-15T12:42:57.176Z,2.20
2018-09-15T12:48:15.725Z,3.47
2018-09-15T12:53:34.218Z,4.20
2018-09-15T12:58:53.042Z,2.80
2018-09-15T13:04:11.866Z,2.00
2018-09-15T13:09:31.194Z,2.27
2018-09-15T13:14:49.825Z,2.73
2018-09-15T13:20:08.691Z,3.00
2018-09-15T13:25:27.330Z,2.50
2018-09-15T13:30:45.835Z,2.50
2018-09-15T13:36:04.564Z,2.83
2018-09-15T13:41:23.169Z,2.47
2018-09-15T13:46:41.773Z,2.50
2018-09-15T13:52:00.326Z,3.20
2018-09-15T13:57:19.129Z,3.20
2018-09-15T14:02:43.970Z,2.80
2018-09-15T14:08:03.266Z,2.70
2018-09-15T14:13:21.835Z,2.63
2018-09-15T14:18:40.481Z,2.83
2018-09-15T14:29:27.469Z,2.60
2018-09-15T14:34:47.724Z,2.23
2018-09-15T14:40:06.735Z,2.40
2018-09-15T14:45:26.679Z,2.27
2018-09-15T14:50:45.247Z,2.30
2018-09-15T14:56:03.907Z,2.53
2018-09-15T15:01:22.445Z,2.50
2018-09-15T15:06:40.945Z,2.63
2018-09-15T15:11:59.459Z,2.80
2018-09-15T15:17:17.979Z,2.40
2018-09-15T15:22:37.239Z,2.50
2018-09-15T15:27:55.779Z,2.20
2018-09-15T15:33:14.367Z,2.90
2018-09-15T15:38:33.286Z,2.90
2018-09-15T15:43:51.819Z,5.07
2018-09-15T15:49:11.050Z,3.63
2018-09-15T15:54:29.633Z,2.80
2018-09-15T15:59:48.251Z,2.23
2018-09-15T16:05:07.812Z,3.10
2018-09-15T16:10:26.429Z,2.50
2018-09-15T16:15:44.986Z,2.47
2018-09-15T16:21:03.503Z,2.13
2018-09-15T16:26:22.075Z,2.57
2018-09-15T16:31:40.693Z,2.50
2018-09-15T16:36:59.215Z,3.00
2018-09-15T16:42:17.746Z,3.00
2018-09-15T16:47:36.714Z,2.60
2018-09-15T16:52:55.267Z,3.57
2018-09-15T16:58:14.568Z,3.17
2018-09-15T17:03:33.156Z,3.17
2018-09-15T17:08:51.689Z,2.63
2018-09-15T17:14:10.283Z,3.10
2018-09-15T17:19:30.413Z,2.97
2018-09-15T17:24:48.951Z,3.70
2018-09-15T17:30:08.135Z,3.57
2018-09-15T17:35:26.702Z,3.83
2018-09-15T17:40:45.262Z,3.67
2018-09-15T17:46:04.058Z,4.20
2018-09-15T17:51:22.805Z,3.90
2018-09-15T17:56:41.387Z,4.50
2018-09-15T18:01:59.960Z,4.27
2018-09-15T18:07:18.880Z,4.33
2018-09-15T18:12:38.441Z,4.30
2018-09-15T18:17:57.008Z,4.43
2018-09-15T18:23:15.576Z,5.27
2018-09-15T18:28:34.471Z,4.20
2018-09-15T18:33:53.068Z,4.07
2018-09-15T18:39:12.029Z,4.40
2018-09-15T18:44:30.569Z,4.80
2018-09-15T18:49:49.931Z,6.20
2018-09-15T18:55:08.544Z,5.23
2018-09-15T19:00:27.453Z,4.60
2018-09-15T19:05:47.026Z,4.20
2018-09-15T19:11:05.825Z,5.50
2018-09-15T19:16:24.400Z,6.03
2018-09-15T19:21:43.598Z,5.47
2018-09-15T19:27:02.208Z,6.10
2018-09-15T19:32:20.763Z,6.43
2018-09-15T19:37:39.371Z,6.17
2018-09-15T19:42:58.509Z,5.63
2018-09-15T19:48:17.124Z,7.03
2018-09-15T19:53:35.832Z,6.67
2018-09-15T19:58:54.376Z,5.67
2018-09-15T20:04:13.126Z,8.23
2018-09-15T20:09:31.642Z,7.27
2018-09-15T20:14:50.258Z,7.60
2018-09-15T20:20:07.542Z,7.60
2018-09-15T20:25:26.262Z,8.63
2018-09-15T20:30:45.476Z,6.67
2018-09-15T20:36:04.279Z,8.60
2018-09-15T20:41:22.847Z,9.47
2018-09-15T20:46:41.398Z,9.30
2018-09-15T20:51:59.954Z,8.07
2018-09-15T20:57:18.608Z,7.00
2018-09-15T21:02:37.257Z,7.47
2018-09-15T21:07:55.836Z,9.23
2018-09-15T21:13:14.451Z,9.57
2018-09-15T21:18:33.343Z,9.60
2018-09-15T21:23:51.969Z,9.30
2018-09-15T21:29:10.898Z,9.83
2018-09-15T21:34:29.563Z,9.50
2018-09-15T21:39:48.135Z,10.40
2018-09-15T21:45:07.752Z,9.90
2018-09-15T21:50:26.868Z,10.40
2018-09-15T21:55:45.379Z,9.20
2018-09-15T22:01:04.768Z,10.83
2018-09-15T22:06:23.289Z,12.20
2018-09-15T22:11:42.583Z,11.23
2018-09-15T22:17:01.748Z,9.70
2018-09-15T22:22:20.755Z,14.80
2018-09-15T22:27:39.267Z,12.03
2018-09-15T22:32:57.858Z,12.33
2018-09-15T22:38:16.362Z,13.93
2018-09-15T22:43:34.975Z,13.13
2018-09-15T22:48:53.550Z,13.13
2018-09-15T22:54:12.128Z,11.43
2018-09-15T22:59:31.565Z,11.73
2018-09-15T23:04:50.100Z,14.47
2018-09-15T23:10:08.651Z,14.97
2018-09-15T23:15:27.799Z,14.47
2018-09-15T23:20:46.380Z,16.70
2018-09-15T23:26:05.432Z,16.80
2018-09-15T23:31:24.114Z,16.10
2018-09-15T23:36:43.493Z,16.50
2018-09-15T23:42:02.153Z,14.40
2018-09-15T23:47:23.594Z,13.90
2018-09-15T23:52:42.691Z,14.20
2018-09-15T23:58:01.860Z,15.47
